»·PEaware :: UAL576 KLAS-KSAN

UAL576 :: KLAS-KSAN

FLIGHT INFORMATION

Flight Status: Arrived
Operator:
United Airlines
More flights by this operator :: More flights under this callsign
Pilot: Anonymous 8274 (8274)
Aircraft: BOEING 737-200
(B732)
More flights by this aircraft type
Origin: KLAS McCarran Intl
United States
Destination: KSAN San Diego Intl-Lindbergh
United States
More flights between these airports :: More routes between these airports
Route: +MCCRN5 TNP BARET5
File this flight plan on PilotEdge
Remarks:
Altitude:
(Current/Filed)
30,000ft
Speed:
(Current/Filed)
460kts
Departed: 26-Jul-18 08:54 PM
Arrived: 26-Jul-18 09:45 PM
Distance/Time
Traveled:
225nm/0:51
Distance/Time
To Go:
Arrived

Flight Plot

Page will automatically refresh every two minutes.

Flight plan parsing failed; only flown route is shown


Map Options




Map Legend


Flown Route
Filed Route
Departure Airport
Arrival Airport
Navaid (VOR, NDB)
Fix

Horizontal Profiles

Position Reports

Time Latitude Longitude Heading Altitude Ground
Speed
26-Jul-18 20:28 36.085469 -115.154944 111 2120ft 0kts
26-Jul-18 20:29 36.085469 -115.154944 111 2120ft 0kts
26-Jul-18 20:30 36.085469 -115.154944 111 2120ft 0kts
26-Jul-18 20:31 36.085469 -115.154944 111 2120ft 0kts
26-Jul-18 20:32 36.085469 -115.154944 111 2120ft 0kts
26-Jul-18 20:33 36.085469 -115.154944 111 2120ft 0kts
26-Jul-18 20:34 36.085469 -115.154944 111 2120ft 0kts
26-Jul-18 20:35 36.085469 -115.154944 111 2120ft 0kts
26-Jul-18 20:36 36.085469 -115.154944 111 2120ft 0kts
26-Jul-18 20:37 36.085469 -115.154944 111 2120ft 0kts
26-Jul-18 20:38 36.085469 -115.154944 111 2120ft 0kts
26-Jul-18 20:39 36.085469 -115.154944 111 2120ft 0kts
26-Jul-18 20:40 36.085586 -115.155305 111 2120ft 2kts
26-Jul-18 20:41 36.086039 -115.155672 189 2120ft 2kts
26-Jul-18 20:42 36.086189 -115.155606 209 2120ft 0kts
26-Jul-18 20:43 36.086189 -115.155606 209 2120ft 0kts
26-Jul-18 20:44 36.086189 -115.155606 209 2120ft 0kts
26-Jul-18 20:45 36.085179 -115.156223 214 2120ft 0kts
26-Jul-18 20:46 36.085179 -115.156223 214 2120ft 0kts
26-Jul-18 20:47 36.085179 -115.156223 214 2120ft 0kts
26-Jul-18 20:48 36.085179 -115.156223 214 2120ft 0kts
26-Jul-18 20:49 36.086053 -115.157577 332 2120ft 8kts
26-Jul-18 20:50 36.083875 -115.159761 204 2120ft 15kts
26-Jul-18 20:51 36.079020 -115.162537 204 2120ft 19kts
26-Jul-18 20:52 36.077595 -115.163357 205 2120ft 0kts
26-Jul-18 20:53 36.077094 -115.163650 205 2120ft 12kts
26-Jul-18 20:54 36.074106 -115.166707 290 2120ft 12kts
26-Jul-18 20:55 36.094334 -115.155730 24 2268ft 158kts
26-Jul-18 20:56 36.132812 -115.162331 323 3996ft 166kts
26-Jul-18 20:57 36.162165 -115.213880 261 5534ft 229kts
26-Jul-18 20:58 36.103920 -115.258706 192 6993ft 299kts
26-Jul-18 20:59 36.023587 -115.278716 192 7023ft 301kts
26-Jul-18 21:00 35.940515 -115.299431 192 9602ft 309kts
26-Jul-18 21:01 35.853401 -115.321219 192 10876ft 353kts
26-Jul-18 21:02 35.756966 -115.345373 192 13046ft 361kts
26-Jul-18 21:03 35.657668 -115.370232 192 14925ft 370kts
26-Jul-18 21:04 35.557194 -115.360848 156 16589ft 378kts
26-Jul-18 21:05 35.459556 -115.309470 156 18098ft 386kts
26-Jul-18 21:06 35.360024 -115.257876 157 19462ft 393kts
26-Jul-18 21:07 35.258023 -115.206623 157 20694ft 400kts
26-Jul-18 21:08 35.151428 -115.168769 176 21790ft 406kts
26-Jul-18 21:09 35.043536 -115.207492 203 22795ft 410kts
26-Jul-18 21:10 34.937784 -115.260862 203 23880ft 416kts
26-Jul-18 21:11 34.833893 -115.304383 199 24785ft 422kts
26-Jul-18 21:12 34.722893 -115.352493 201 25661ft 426kts
26-Jul-18 21:13 34.611889 -115.402976 201 26446ft 431kts
26-Jul-18 21:14 34.499124 -115.454211 201 27228ft 433kts
26-Jul-18 21:15 34.386885 -115.505083 201 28101ft 432kts
26-Jul-18 21:16 34.278235 -115.564090 219 28720ft 432kts
26-Jul-18 21:17 34.190631 -115.656226 227 29256ft 434kts
26-Jul-18 21:18 34.115071 -115.762552 231 29736ft 436kts
26-Jul-18 21:19 34.011062 -115.826267 174 29909ft 450kts
26-Jul-18 21:20 33.886934 -115.816871 195 29903ft 460kts
26-Jul-18 21:21 33.773353 -115.867425 201 28910ft 445kts
26-Jul-18 21:22 33.657467 -115.912517 193 26633ft 434kts
26-Jul-18 21:23 33.540783 -115.937240 193 24432ft 421kts
26-Jul-18 21:24 33.459640 -116.024572 235 23890ft 403kts
26-Jul-18 21:25 33.395106 -116.135765 237 23888ft 413kts
26-Jul-18 21:26 33.335286 -116.253728 238 23890ft 421kts
26-Jul-18 21:27 33.268432 -116.369227 236 23890ft 428kts
26-Jul-18 21:28 33.169313 -116.441915 207 23874ft 436kts
26-Jul-18 21:29 33.068738 -116.509382 210 21547ft 404kts
26-Jul-18 21:30 32.981579 -116.585561 222 17758ft 382kts
26-Jul-18 21:31 32.904898 -116.664179 223 14168ft 364kts
26-Jul-18 21:32 32.823769 -116.703131 191 11223ft 356kts
26-Jul-18 21:33 32.734693 -116.722811 191 11012ft 292kts
26-Jul-18 21:34 32.662538 -116.738407 190 10154ft 253kts
26-Jul-18 21:35 32.598602 -116.763779 241 8423ft 243kts
26-Jul-18 21:36 32.544664 -116.784932 133 7177ft 244kts
26-Jul-18 21:37 32.557801 -116.726046 3 6109ft 221kts
26-Jul-18 21:38 32.603782 -116.768402 311 5081ft 219kts
26-Jul-18 21:39 32.642112 -116.823524 302 4867ft 218kts
26-Jul-18 21:40 32.661213 -116.892309 288 4857ft 218kts
26-Jul-18 21:41 32.677784 -116.960953 286 4051ft 221kts
26-Jul-18 21:42 32.693933 -117.029802 290 2899ft 215kts
26-Jul-18 21:43 32.710418 -117.094802 287 1869ft 170kts
26-Jul-18 21:44 32.721849 -117.142251 289 874ft 142kts
26-Jul-18 21:45 32.732767 -117.186466 289 25ft 128kts
26-Jul-18 21:46 32.735546 -117.202196 194 23ft 0kts
26-Jul-18 21:47 32.734773 -117.202438 194 23ft 15kts
26-Jul-18 21:48 32.732335 -117.202864 201 23ft 2kts

Navigation Log

Ident Type
Flight plan parsing failed, navigation log unavailable